Time;durP1;ratioP1;P1;durP2;ratioP2;P2;SDS_P1;SDS_P2;PMS_P1;PMS_P2;Temp;Humidity;BMP_temperature;BMP_pressure;BME280_temperature;BME280_humidity;BME280_pressure;Samples;Min_cycle;Max_cycle;Signal;HPM_P1;HPM_P2
2023/09/01 00:00:31;;;;;;;4.17;2.00;;;14.60;99.90;;;;;;4989063;28;20451;-61
2023/09/01 00:02:58;;;;;;;1.70;1.00;;;14.60;99.90;;;;;;4988964;28;20217;-61
2023/09/01 00:05:24;;;;;;;3.30;1.40;;;14.70;99.90;;;;;;4989100;28;20687;-61
2023/09/01 00:07:49;;;;;;;2.20;1.03;;;14.60;99.90;;;;;;4989057;28;20581;-61
2023/09/01 00:10:15;;;;;;;2.30;1.23;;;14.70;99.90;;;;;;4989710;28;20668;-61
2023/09/01 00:12:40;;;;;;;3.93;1.73;;;14.70;99.90;;;;;;4988689;28;20211;-61
2023/09/01 00:15:06;;;;;;;3.23;1.20;;;14.70;99.90;;;;;;4988863;28;21500;-61
2023/09/01 00:17:32;;;;;;;8.33;1.57;;;14.60;99.90;;;;;;4988881;28;21037;-61
2023/09/01 00:19:58;;;;;;;6.80;1.63;;;14.60;99.90;;;;;;4989834;28;20188;-61
2023/09/01 00:22:23;;;;;;;2.67;1.53;;;14.60;99.90;;;;;;4988939;28;20188;-61
2023/09/01 00:24:49;;;;;;;2.70;1.40;;;14.50;99.90;;;;;;4989225;28;20191;-61
2023/09/01 00:27:14;;;;;;;3.10;1.60;;;14.50;99.90;;;;;;4989489;28;20230;-61
2023/09/01 00:29:40;;;;;;;3.40;1.83;;;14.50;99.90;;;;;;4989227;28;20182;-61
2023/09/01 00:32:06;;;;;;;5.40;1.30;;;14.50;99.90;;;;;;4988724;28;20263;-61
2023/09/01 00:34:32;;;;;;;1.60;0.83;;;14.50;99.90;;;;;;4988538;28;20188;-61
2023/09/01 00:36:57;;;;;;;4.23;1.50;;;14.60;99.90;;;;;;4988563;28;20191;-61
2023/09/01 00:39:23;;;;;;;4.03;1.50;;;14.60;99.90;;;;;;4989065;28;20465;-61
2023/09/01 00:41:49;;;;;;;3.70;1.43;;;14.60;99.90;;;;;;4988941;28;20271;-61
2023/09/01 00:44:14;;;;;;;4.40;1.23;;;14.60;99.90;;;;;;4988669;28;20929;-60
2023/09/01 00:46:46;;;;;;;4.50;1.37;;;14.70;99.90;;;;;;4988767;28;20209;-60
2023/09/01 00:49:12;;;;;;;3.87;1.27;;;14.60;99.90;;;;;;4987776;28;20241;-60
2023/09/01 00:51:38;;;;;;;2.50;1.27;;;14.70;99.90;;;;;;4987052;28;20430;-60
2023/09/01 00:54:05;;;;;;;1.87;0.97;;;14.70;99.90;;;;;;4986619;28;20411;-60
2023/09/01 00:56:32;;;;;;;3.73;1.63;;;14.70;99.90;;;;;;4987247;28;20526;-60
2023/09/01 00:58:57;;;;;;;2.90;1.43;;;14.70;99.90;;;;;;4989254;28;20510;-60
2023/09/01 01:01:23;;;;;;;10.20;1.17;;;14.70;99.90;;;;;;4971405;28;20634;-60
2023/09/01 01:03:51;;;;;;;4.13;1.47;;;14.70;99.90;;;;;;4985424;28;20214;-60
2023/09/01 01:06:35;;;;;;;10.60;1.27;;;14.70;99.90;;;;;;4990779;28;20184;-60
2023/09/01 01:09:29;;;;;;;2.30;1.20;;;14.80;99.90;;;;;;4990071;28;20418;-60
2023/09/01 01:12:05;;;;;;;2.63;1.67;;;14.90;99.90;;;;;;4971459;28;20430;-60
2023/09/01 01:14:49;;;;;;;2.60;1.10;;;14.90;99.90;;;;;;4971161;28;20458;-60
2023/09/01 01:17:18;;;;;;;2.07;0.80;;;14.80;99.90;;;;;;4971158;28;20904;-60
2023/09/01 01:19:59;;;;;;;8.50;1.60;;;14.90;99.90;;;;;;4984196;28;20423;-60
2023/09/01 01:22:47;;;;;;;2.90;1.17;;;14.90;99.90;;;;;;4987288;28;20505;-60
2023/09/01 01:25:13;;;;;;;3.33;1.20;;;14.90;99.90;;;;;;4989308;28;20430;-60
2023/09/01 01:27:43;;;;;;;2.70;1.13;;;14.90;99.90;;;;;;4989406;28;20462;-61
2023/09/01 01:30:13;;;;;;;3.40;1.40;;;14.90;99.90;;;;;;4989339;28;20826;-60
2023/09/01 01:32:40;;;;;;;2.17;1.00;;;14.90;99.90;;;;;;4988422;28;21810;-60
2023/09/01 01:35:29;;;;;;;3.33;1.30;;;14.90;99.90;;;;;;4987936;28;20423;-60
2023/09/01 01:38:03;;;;;;;2.40;1.30;;;14.90;99.90;;;;;;4988236;28;20732;-60
2023/09/01 01:40:30;;;;;;;3.80;1.00;;;14.90;99.90;;;;;;4987998;28;20508;-60
2023/09/01 01:42:58;;;;;;;3.10;1.70;;;14.90;99.90;;;;;;4988935;28;20422;-60
2023/09/01 01:45:24;;;;;;;2.57;1.60;;;14.90;99.90;;;;;;4988367;28;20577;-60
2023/09/01 01:47:51;;;;;;;2.13;1.10;;;14.90;99.90;;;;;;4986700;28;20474;-60
2023/09/01 01:50:17;;;;;;;2.83;1.10;;;14.90;99.90;;;;;;4991532;28;20506;-60
2023/09/01 01:52:43;;;;;;;2.40;1.17;;;14.90;99.90;;;;;;4992809;28;20459;-60
2023/09/01 01:55:09;;;;;;;4.00;1.10;;;15.00;99.90;;;;;;4993399;28;20485;-60
2023/09/01 01:57:38;;;;;;;1.97;1.10;;;15.00;99.90;;;;;;4980753;28;20234;-60
2023/09/01 02:00:11;;;;;;;3.27;1.60;;;15.00;99.90;;;;;;4993873;28;20473;-60
2023/09/01 02:02:39;;;;;;;2.27;1.00;;;15.00;99.90;;;;;;4980541;28;20469;-60
2023/09/01 02:05:06;;;;;;;6.63;1.60;;;15.00;99.90;;;;;;4982281;28;20773;-60
2023/09/01 02:07:33;;;;;;;2.10;1.27;;;15.00;99.90;;;;;;4984748;28;20544;-60
2023/09/01 02:09:58;;;;;;;2.97;1.20;;;15.00;99.90;;;;;;4987725;28;20418;-60
2023/09/01 02:12:24;;;;;;;5.87;1.40;;;15.00;99.90;;;;;;4975452;28;20424;-60
2023/09/01 02:14:50;;;;;;;5.23;1.57;;;15.00;99.90;;;;;;4973808;28;20579;-60
2023/09/01 02:17:15;;;;;;;2.77;1.00;;;15.00;99.90;;;;;;4978219;28;20231;-60
2023/09/01 02:19:41;;;;;;;3.10;1.27;;;15.00;99.90;;;;;;4982355;28;20259;-60
2023/09/01 02:22:06;;;;;;;8.20;1.47;;;15.00;99.90;;;;;;4984853;28;20251;-60
2023/09/01 02:24:33;;;;;;;5.27;1.17;;;15.00;99.90;;;;;;4973712;28;20189;-60
2023/09/01 02:26:58;;;;;;;3.77;1.03;;;15.00;99.90;;;;;;4978294;28;20200;-60
2023/09/01 02:29:24;;;;;;;2.37;1.30;;;15.10;99.90;;;;;;4993103;28;20419;-60
2023/09/01 02:31:50;;;;;;;5.47;1.40;;;15.10;99.90;;;;;;4988378;28;20259;-60
2023/09/01 02:34:15;;;;;;;2.80;1.43;;;15.10;99.90;;;;;;4979318;28;20191;-60
2023/09/01 02:36:41;;;;;;;3.37;1.57;;;15.10;99.90;;;;;;4975518;28;20195;-60
2023/09/01 02:39:07;;;;;;;2.30;0.90;;;15.00;99.90;;;;;;4973377;28;20212;-60
2023/09/01 02:41:32;;;;;;;2.27;1.20;;;15.20;99.90;;;;;;4990670;28;20509;-60
2023/09/01 02:43:58;;;;;;;3.50;1.63;;;15.10;99.90;;;;;;4982274;28;20181;-60
2023/09/01 02:46:24;;;;;;;4.30;1.20;;;15.20;99.90;;;;;;4976800;28;20184;-60
2023/09/01 02:48:50;;;;;;;7.70;1.33;;;15.20;99.90;;;;;;4993005;28;20176;-60
2023/09/01 02:51:16;;;;;;;3.33;1.20;;;15.20;99.90;;;;;;4982843;28;20181;-60
2023/09/01 02:53:42;;;;;;;2.20;1.20;;;15.10;99.90;;;;;;4992407;28;20505;-60
2023/09/01 02:56:08;;;;;;;5.67;1.43;;;15.10;99.90;;;;;;4992549;28;20960;-60
2023/09/01 02:58:34;;;;;;;3.10;1.10;;;15.10;99.90;;;;;;4993055;28;20176;-60
2023/09/01 03:01:08;;;;;;;1.90;1.17;;;15.20;99.90;;;;;;4979140;28;20457;-60
2023/09/01 03:03:35;;;;;;;7.27;1.20;;;15.20;99.90;;;;;;4980260;28;20264;-60
2023/09/01 03:06:00;;;;;;;3.30;1.40;;;15.20;99.90;;;;;;4985014;28;20831;-60
2023/09/01 03:08:26;;;;;;;3.97;1.20;;;15.30;99.90;;;;;;4991025;28;20556;-60
2023/09/01 03:10:52;;;;;;;6.73;1.30;;;15.30;99.90;;;;;;4985788;28;20944;-60
2023/09/01 03:13:19;;;;;;;2.40;1.57;;;15.10;99.90;;;;;;4980003;28;20204;-60
2023/09/01 03:15:45;;;;;;;3.50;1.23;;;15.20;99.90;;;;;;4985005;28;20434;-60
2023/09/01 03:18:11;;;;;;;3.27;1.50;;;15.20;99.90;;;;;;4986048;28;20426;-60
2023/09/01 03:20:40;;;;;;;4.87;1.23;;;15.20;99.90;;;;;;4988682;28;20218;-60
2023/09/01 03:23:06;;;;;;;2.50;1.47;;;15.30;99.90;;;;;;4979102;28;20199;-60
2023/09/01 03:25:31;;;;;;;4.57;1.10;;;15.40;99.90;;;;;;4971745;28;20542;-60
2023/09/01 03:27:57;;;;;;;3.00;1.03;;;15.30;99.90;;;;;;4984590;28;20638;-60
2023/09/01 03:30:24;;;;;;;2.83;1.10;;;15.40;99.90;;;;;;4989866;28;20603;-60
2023/09/01 03:32:49;;;;;;;2.73;1.10;;;15.40;99.90;;;;;;4989008;28;20649;-60
2023/09/01 03:35:15;;;;;;;4.60;0.90;;;15.40;99.90;;;;;;4989319;28;20195;-60
2023/09/01 03:37:41;;;;;;;2.17;1.20;;;15.40;99.90;;;;;;4984808;28;20219;-60
2023/09/01 03:40:10;;;;;;;7.30;1.50;;;15.40;99.90;;;;;;4983745;28;20310;-60
2023/09/01 03:42:36;;;;;;;3.83;1.37;;;15.40;99.90;;;;;;4983823;28;20194;-60
2023/09/01 03:45:03;;;;;;;2.70;1.03;;;15.40;99.90;;;;;;4983838;28;20981;-60
2023/09/01 03:47:28;;;;;;;9.40;0.90;;;15.50;99.90;;;;;;4982857;28;20485;-60
2023/09/01 03:49:54;;;;;;;7.23;1.40;;;15.40;99.90;;;;;;4983083;28;20514;-60
2023/09/01 03:52:20;;;;;;;1.83;0.80;;;15.40;99.90;;;;;;4982442;28;20258;-60
2023/09/01 03:54:45;;;;;;;3.33;1.50;;;15.40;99.90;;;;;;4983430;28;20286;-60
2023/09/01 03:57:11;;;;;;;3.77;1.30;;;15.40;99.90;;;;;;4982950;28;20188;-60
2023/09/01 03:59:36;;;;;;;3.67;1.10;;;15.30;99.90;;;;;;4983582;28;20304;-60
2023/09/01 04:02:04;;;;;;;5.80;1.37;;;15.20;99.90;;;;;;4983260;28;20196;-60
2023/09/01 04:04:30;;;;;;;3.30;0.80;;;15.10;99.90;;;;;;4983011;28;20191;-60
2023/09/01 04:06:55;;;;;;;3.80;1.60;;;15.10;99.90;;;;;;4983417;28;20477;-60
2023/09/01 04:09:21;;;;;;;4.30;1.40;;;15.20;99.90;;;;;;4983180;28;20538;-60
2023/09/01 04:11:46;;;;;;;3.10;1.27;;;15.10;99.90;;;;;;4983400;28;20188;-60
2023/09/01 04:14:12;;;;;;;4.10;1.20;;;15.00;99.90;;;;;;4980994;28;20192;-60
2023/09/01 04:16:39;;;;;;;4.80;1.20;;;14.90;99.90;;;;;;4982420;28;20227;-60
2023/09/01 04:19:04;;;;;;;4.30;1.70;;;14.90;99.90;;;;;;4982196;28;20287;-60
2023/09/01 04:21:30;;;;;;;2.80;0.77;;;14.90;99.90;;;;;;4981710;28;20434;-60
2023/09/01 04:23:56;;;;;;;1.60;1.00;;;14.90;99.90;;;;;;4980472;28;20191;-61
2023/09/01 04:26:21;;;;;;;2.30;1.10;;;15.00;99.90;;;;;;4982772;28;21164;-61
2023/09/01 04:28:47;;;;;;;3.70;1.20;;;15.10;99.90;;;;;;4982279;28;20192;-61
2023/09/01 04:31:21;;;;;;;2.60;1.30;;;15.00;99.90;;;;;;4981889;28;20601;-61
2023/09/01 04:33:47;;;;;;;3.10;0.97;;;15.00;99.90;;;;;;4981619;28;20191;-61
2023/09/01 04:36:12;;;;;;;5.47;0.97;;;15.00;99.90;;;;;;4981564;28;20446;-61
2023/09/01 04:38:38;;;;;;;3.60;1.30;;;15.10;99.90;;;;;;4983027;28;21551;-61
2023/09/01 04:41:04;;;;;;;2.30;1.10;;;15.20;99.90;;;;;;4983199;28;20191;-61
2023/09/01 04:43:29;;;;;;;4.17;1.10;;;15.20;99.90;;;;;;4983261;28;20222;-61
2023/09/01 04:45:56;;;;;;;5.20;1.30;;;15.20;99.90;;;;;;4982275;28;20253;-61
2023/09/01 04:48:23;;;;;;;2.40;1.20;;;15.20;99.90;;;;;;4983256;28;20230;-61
2023/09/01 04:50:49;;;;;;;2.23;1.23;;;15.20;99.90;;;;;;4981522;28;20481;-61
2023/09/01 04:53:15;;;;;;;2.43;0.80;;;15.20;99.90;;;;;;4981929;28;20439;-61
2023/09/01 04:55:41;;;;;;;4.10;0.77;;;15.20;99.90;;;;;;4979799;28;20192;-61
2023/09/01 04:58:07;;;;;;;7.50;1.30;;;15.10;99.90;;;;;;4980588;28;20538;-61
2023/09/01 05:00:34;;;;;;;1.50;0.90;;;15.10;99.90;;;;;;4979599;28;20801;-61
2023/09/01 05:03:01;;;;;;;1.30;0.70;;;15.10;99.90;;;;;;4980104;28;20219;-61
2023/09/01 05:05:26;;;;;;;4.07;1.30;;;15.20;99.90;;;;;;4979216;28;20533;-61
2023/09/01 05:07:52;;;;;;;2.60;1.07;;;15.20;99.90;;;;;;4980043;28;20467;-61
2023/09/01 05:10:18;;;;;;;1.60;0.90;;;15.20;99.90;;;;;;4980496;28;20187;-61
2023/09/01 05:12:43;;;;;;;4.80;1.20;;;15.20;99.90;;;;;;4979167;28;20577;-61
2023/09/01 05:15:09;;;;;;;4.00;1.43;;;15.20;99.90;;;;;;4979460;28;20176;-61
2023/09/01 05:17:35;;;;;;;7.33;0.80;;;15.20;99.90;;;;;;4979006;28;20274;-61
2023/09/01 05:20:01;;;;;;;2.43;1.10;;;15.20;99.90;;;;;;4979722;28;20304;-62
2023/09/01 05:22:27;;;;;;;1.93;0.97;;;15.10;99.90;;;;;;4981805;28;20434;-62
2023/09/01 05:24:53;;;;;;;1.93;0.70;;;15.00;99.90;;;;;;4985115;28;20255;-62
2023/09/01 05:27:19;;;;;;;2.03;0.90;;;15.00;99.90;;;;;;4986254;28;20215;-63
2023/09/01 05:29:49;;;;;;;5.93;1.33;;;14.90;99.90;;;;;;4985936;28;20422;-62
2023/09/01 05:32:18;;;;;;;2.13;1.10;;;14.90;99.90;;;;;;4985677;28;20426;-62
2023/09/01 05:34:44;;;;;;;2.00;1.17;;;14.90;99.90;;;;;;4985711;28;20423;-62
2023/09/01 05:37:12;;;;;;;1.93;0.97;;;14.80;99.90;;;;;;4985827;28;20456;-62
2023/09/01 05:39:38;;;;;;;1.67;1.00;;;14.80;99.90;;;;;;4986075;28;20241;-63
2023/09/01 05:42:04;;;;;;;3.00;1.13;;;14.70;99.90;;;;;;4985624;28;20439;-62
2023/09/01 05:44:30;;;;;;;6.10;1.27;;;14.80;99.90;;;;;;4985049;28;20430;-62
2023/09/01 05:46:56;;;;;;;3.60;0.93;;;14.70;99.90;;;;;;4985601;28;20462;-63
2023/09/01 05:49:23;;;;;;;7.83;1.80;;;14.80;99.90;;;;;;4985657;28;20437;-62
2023/09/01 05:51:49;;;;;;;2.03;1.00;;;14.80;99.90;;;;;;4985306;28;20510;-62
2023/09/01 05:54:19;;;;;;;1.70;1.20;;;14.80;99.90;;;;;;4985455;28;20460;-62
2023/09/01 05:56:45;;;;;;;1.97;1.00;;;14.80;99.90;;;;;;4985569;28;20192;-62
2023/09/01 05:59:10;;;;;;;2.30;1.17;;;14.80;99.90;;;;;;4985484;28;20426;-62
2023/09/01 06:01:36;;;;;;;2.07;0.90;;;14.80;99.90;;;;;;4985190;28;20447;-62
2023/09/01 06:04:05;;;;;;;1.70;0.90;;;14.90;99.90;;;;;;4984899;28;20691;-62
2023/09/01 06:06:31;;;;;;;3.53;0.90;;;14.90;99.90;;;;;;4984987;28;20196;-62
2023/09/01 06:09:09;;;;;;;14.03;1.43;;;14.90;99.90;;;;;;4985424;28;20441;-62
2023/09/01 06:11:37;;;;;;;4.00;1.00;;;14.90;99.90;;;;;;4985187;28;20430;-62
2023/09/01 06:14:03;;;;;;;2.60;1.10;;;14.90;99.90;;;;;;4985153;28;20904;-62
2023/09/01 06:16:29;;;;;;;2.33;1.30;;;14.90;99.90;;;;;;4983520;28;20517;-62
2023/09/01 06:18:55;;;;;;;3.77;0.87;;;15.00;99.90;;;;;;4950672;28;20422;-61
2023/09/01 06:21:21;;;;;;;2.73;1.30;;;14.90;99.90;;;;;;4977337;28;20915;-61
2023/09/01 06:23:47;;;;;;;2.40;1.03;;;14.90;99.90;;;;;;4983520;28;20427;-61
2023/09/01 06:26:14;;;;;;;3.20;1.00;;;14.90;99.90;;;;;;4983383;28;20194;-61
2023/09/01 06:28:40;;;;;;;2.23;1.10;;;14.90;99.90;;;;;;4983872;28;20570;-61
2023/09/01 06:31:07;;;;;;;2.50;1.27;;;15.00;99.90;;;;;;4982782;28;20438;-61
2023/09/01 06:33:33;;;;;;;5.73;1.00;;;15.00;99.90;;;;;;4983896;28;20477;-61
2023/09/01 06:35:58;;;;;;;1.93;0.83;;;15.00;99.90;;;;;;4983765;28;20422;-61
2023/09/01 06:38:24;;;;;;;1.83;0.83;;;15.10;99.90;;;;;;4983737;28;20538;-61
2023/09/01 06:40:49;;;;;;;2.33;0.90;;;15.10;99.90;;;;;;4984346;28;20192;-61
2023/09/01 06:43:15;;;;;;;2.20;0.93;;;15.20;99.90;;;;;;4983902;28;20198;-61
2023/09/01 06:45:41;;;;;;;1.70;0.90;;;15.20;99.90;;;;;;4983463;28;20243;-61
2023/09/01 06:48:06;;;;;;;2.80;1.20;;;15.30;99.90;;;;;;4982739;28;20226;-61
2023/09/01 06:50:32;;;;;;;1.93;0.80;;;15.40;99.90;;;;;;4982749;28;20184;-61
2023/09/01 06:52:58;;;;;;;3.23;0.97;;;15.50;99.90;;;;;;4983931;28;20215;-61
2023/09/01 06:55:24;;;;;;;1.60;0.90;;;15.60;99.90;;;;;;4983271;28;20431;-61
2023/09/01 06:57:49;;;;;;;1.60;0.80;;;15.60;99.90;;;;;;4983930;28;20438;-61
2023/09/01 07:00:16;;;;;;;3.83;1.20;;;15.60;99.90;;;;;;4983376;28;20215;-61
2023/09/01 07:02:41;;;;;;;1.90;1.00;;;15.70;99.90;;;;;;4981394;28;20184;-61
2023/09/01 07:05:07;;;;;;;3.40;1.00;;;15.70;99.90;;;;;;4983076;28;20493;-61
2023/09/01 07:07:32;;;;;;;1.93;0.80;;;15.70;99.90;;;;;;4982386;28;21001;-61
2023/09/01 07:09:58;;;;;;;2.70;1.30;;;15.70;99.90;;;;;;4983051;28;20246;-61
2023/09/01 07:12:24;;;;;;;1.77;1.07;;;15.80;99.90;;;;;;4983845;28;20805;-61
2023/09/01 07:14:49;;;;;;;2.07;0.80;;;15.90;99.90;;;;;;4982510;28;20277;-61
2023/09/01 07:17:20;;;;;;;1.97;0.73;;;16.10;99.90;;;;;;4982964;28;20192;-62
2023/09/01 07:19:46;;;;;;;1.77;0.70;;;16.20;99.90;;;;;;4981978;28;20187;-61
2023/09/01 07:22:12;;;;;;;2.07;0.70;;;16.30;99.90;;;;;;4982695;28;20590;-61
2023/09/01 07:24:37;;;;;;;1.20;0.50;;;16.40;99.90;;;;;;4983072;28;20191;-61
2023/09/01 07:27:05;;;;;;;2.13;1.23;;;16.70;99.90;;;;;;4983714;28;20215;-61
2023/09/01 07:29:31;;;;;;;6.30;0.90;;;16.90;99.90;;;;;;4981645;28;20270;-61
2023/09/01 07:31:56;;;;;;;1.70;0.83;;;17.10;99.90;;;;;;4982054;28;20435;-61
2023/09/01 07:34:22;;;;;;;1.40;0.70;;;17.20;99.90;;;;;;4982699;28;20628;-61
2023/09/01 07:36:47;;;;;;;4.53;0.90;;;17.30;99.90;;;;;;4982961;28;20192;-61
2023/09/01 07:39:13;;;;;;;1.53;0.90;;;17.20;99.90;;;;;;4981961;28;21465;-61
2023/09/01 07:41:39;;;;;;;2.40;0.70;;;17.40;99.90;;;;;;4982341;28;20271;-61
2023/09/01 07:44:04;;;;;;;1.50;0.70;;;17.60;99.90;;;;;;4982700;28;20192;-61
2023/09/01 07:46:33;;;;;;;2.03;0.80;;;17.70;99.90;;;;;;4982112;28;20196;-61
2023/09/01 07:48:59;;;;;;;2.77;1.07;;;17.70;99.90;;;;;;4982078;28;20274;-61
2023/09/01 07:51:25;;;;;;;3.33;0.90;;;17.60;99.90;;;;;;4976857;28;20493;-61
2023/09/01 07:53:50;;;;;;;3.00;0.67;;;17.60;99.90;;;;;;4976712;28;20432;-61
2023/09/01 07:56:16;;;;;;;1.93;0.60;;;17.60;99.90;;;;;;4977692;28;20543;-61
2023/09/01 07:58:41;;;;;;;2.70;1.00;;;17.60;99.90;;;;;;4977653;28;20270;-61
2023/09/01 08:01:07;;;;;;;1.67;0.70;;;17.60;99.90;;;;;;4977406;28;20754;-61
2023/09/01 08:03:33;;;;;;;10.00;0.83;;;17.70;99.90;;;;;;4977044;28;20654;-61
2023/09/01 08:05:59;;;;;;;5.80;1.00;;;17.70;99.90;;;;;;4976826;28;20226;-61
2023/09/01 08:08:25;;;;;;;1.37;0.60;;;17.80;99.90;;;;;;4986569;23;20507;-61
2023/09/01 08:10:51;;;;;;;1.50;0.83;;;17.90;99.90;;;;;;4978298;28;20190;-61
2023/09/01 08:13:17;;;;;;;1.73;0.70;;;18.00;99.90;;;;;;4977251;28;20254;-61
2023/09/01 08:15:43;;;;;;;1.40;0.70;;;18.10;99.90;;;;;;4977962;28;20530;-61
2023/09/01 08:18:08;;;;;;;15.90;5.53;;;18.30;99.90;;;;;;4978276;28;20282;-61
2023/09/01 08:20:34;;;;;;;2.53;1.10;;;18.40;99.90;;;;;;4979614;28;20878;-62
2023/09/01 08:23:00;;;;;;;2.23;0.80;;;18.50;99.90;;;;;;4981863;28;20202;-61
2023/09/01 08:25:25;;;;;;;43.03;26.07;;;18.30;99.90;;;;;;4981173;28;20250;-61
2023/09/01 08:27:51;;;;;;;2.43;0.73;;;18.10;99.90;;;;;;4981471;28;20318;-61
2023/09/01 08:30:16;;;;;;;1.93;0.83;;;18.30;99.90;;;;;;4977226;28;20188;-61
2023/09/01 08:32:42;;;;;;;1.40;0.73;;;18.30;99.90;;;;;;4964080;28;20192;-61
2023/09/01 08:35:08;;;;;;;6.10;1.10;;;18.30;99.90;;;;;;4980995;28;20199;-61
2023/09/01 08:37:34;;;;;;;2.40;0.70;;;18.30;99.90;;;;;;4980947;28;20661;-61
2023/09/01 08:40:00;;;;;;;3.30;1.27;;;18.40;99.90;;;;;;4981617;28;20431;-61
2023/09/01 08:42:27;;;;;;;1.57;0.83;;;18.50;99.90;;;;;;4981156;28;20313;-61
2023/09/01 08:44:53;;;;;;;2.00;0.80;;;18.60;99.90;;;;;;4980974;28;20553;-61
2023/09/01 08:47:22;;;;;;;3.87;1.00;;;18.60;99.90;;;;;;4980748;28;20462;-61
2023/09/01 08:49:49;;;;;;;2.50;1.00;;;18.70;99.90;;;;;;4980133;28;20775;-61
2023/09/01 08:52:18;;;;;;;1.80;1.03;;;18.80;99.90;;;;;;4981804;28;20514;-61
2023/09/01 08:54:45;;;;;;;1.73;1.00;;;19.40;99.90;;;;;;4980823;28;20431;-62
2023/09/01 08:57:11;;;;;;;3.87;1.13;;;20.00;99.90;;;;;;4981773;28;20465;-62
2023/09/01 08:59:37;;;;;;;1.57;0.77;;;20.50;99.90;;;;;;4980943;28;20493;-62
2023/09/01 09:02:05;;;;;;;1.77;0.70;;;20.70;99.90;;;;;;4979761;28;21121;-62
2023/09/01 09:04:31;;;;;;;2.37;1.10;;;21.30;99.90;;;;;;4979801;28;20188;-62
2023/09/01 09:07:15;;;;;;;1.50;0.80;;;21.40;99.90;;;;;;4980774;28;20478;-62
2023/09/01 09:09:52;;;;;;;1.80;0.83;;;21.30;99.90;;;;;;4982166;28;20573;-62
2023/09/01 09:12:19;;;;;;;6.90;1.43;;;20.70;99.90;;;;;;4982035;28;20458;-62
2023/09/01 09:14:49;;;;;;;3.20;0.80;;;20.70;99.90;;;;;;4981836;28;20458;-62
2023/09/01 09:17:15;;;;;;;2.33;0.80;;;20.20;99.90;;;;;;4980667;28;20427;-62
2023/09/01 09:19:54;;;;;;;15.63;14.10;;;20.20;99.90;;;;;;4978516;28;20449;-62
2023/09/01 09:22:21;;;;;;;3.33;0.80;;;20.30;99.90;;;;;;4976492;28;20187;-62
2023/09/01 09:24:47;;;;;;;4.03;1.13;;;20.20;99.90;;;;;;4977653;28;20519;-62
2023/09/01 09:27:17;;;;;;;2.23;0.90;;;20.00;99.90;;;;;;4978159;28;20466;-62
2023/09/01 09:29:45;;;;;;;2.10;0.73;;;19.70;99.90;;;;;;4977949;28;20865;-62
2023/09/01 09:32:21;;;;;;;3.73;1.00;;;19.70;99.90;;;;;;4977991;28;20557;-62
2023/09/01 09:35:05;;;;;;;3.80;0.87;;;19.70;99.90;;;;;;4976209;28;20456;-62
2023/09/01 09:37:36;;;;;;;3.47;1.10;;;19.60;99.90;;;;;;4977639;28;20434;-62
2023/09/01 09:40:16;;;;;;;2.93;1.03;;;19.60;99.90;;;;;;4979409;28;20437;-62
2023/09/01 09:42:44;;;;;;;3.07;0.90;;;19.60;99.90;;;;;;4981403;28;20466;-61
2023/09/01 09:45:28;;;;;;;11.63;1.17;;;19.80;99.90;;;;;;4979391;28;20522;-61
2023/09/01 09:48:02;;;;;;;3.20;1.07;;;19.70;99.90;;;;;;4980015;28;20459;-61
2023/09/01 09:50:29;;;;;;;3.83;0.90;;;19.60;99.90;;;;;;4983927;28;20461;-62
2023/09/01 09:52:56;;;;;;;21.23;1.20;;;19.50;99.90;;;;;;4983994;28;20427;-61
2023/09/01 09:55:30;;;;;;;12.60;1.27;;;19.50;99.90;;;;;;4984345;28;20449;-61
2023/09/01 09:58:09;;;;;;;26.30;1.20;;;19.50;99.90;;;;;;4984585;28;20482;-61
2023/09/01 10:00:58;;;;;;;64.27;1.50;;;19.60;99.90;;;;;;4978020;28;20970;-61
2023/09/01 10:03:29;;;;;;;16.20;1.60;;;19.60;99.90;;;;;;4983202;28;21498;-61
2023/09/01 10:05:55;;;;;;;23.57;1.33;;;19.60;99.90;;;;;;4984702;28;20439;-62
2023/09/01 10:08:21;;;;;;;51.73;1.57;;;19.60;99.90;;;;;;4985215;28;20971;-61
2023/09/01 10:10:49;;;;;;;76.50;1.53;;;19.70;99.90;;;;;;4983709;28;20460;-61
2023/09/01 10:13:15;;;;;;;32.40;1.30;;;19.80;99.90;;;;;;4984194;28;20423;-62
2023/09/01 10:15:42;;;;;;;56.00;1.37;;;19.80;99.90;;;;;;4983327;28;20430;-62
2023/09/01 10:18:08;;;;;;;18.17;1.00;;;19.80;99.90;;;;;;4983016;28;20454;-61
2023/09/01 10:20:40;;;;;;;21.77;1.73;;;19.90;99.90;;;;;;4984478;28;20973;-62
2023/09/01 10:23:08;;;;;;;15.83;1.20;;;20.00;99.90;;;;;;4984238;28;20439;-62
2023/09/01 10:25:34;;;;;;;7.10;1.07;;;20.10;99.90;;;;;;4982868;28;20431;-62
2023/09/01 10:28:11;;;;;;;35.27;1.17;;;20.30;99.90;;;;;;4984152;28;20467;-61
2023/09/01 10:30:43;;;;;;;26.30;1.40;;;20.70;99.90;;;;;;4981581;28;20648;-61
2023/09/01 10:33:10;;;;;;;17.50;0.90;;;20.90;99.90;;;;;;4983321;28;20431;-62
2023/09/01 10:35:47;;;;;;;13.60;0.93;;;20.90;99.90;;;;;;4981736;28;20478;-62
2023/09/01 10:38:13;;;;;;;14.83;1.00;;;21.00;99.90;;;;;;4984083;28;20423;-61
2023/09/01 10:40:45;;;;;;;21.30;1.17;;;20.90;99.90;;;;;;4983076;28;21246;-61
2023/09/01 10:43:11;;;;;;;15.50;1.13;;;20.80;99.90;;;;;;4983530;28;20215;-61
2023/09/01 10:45:38;;;;;;;12.00;1.10;;;20.70;99.90;;;;;;4982899;28;20609;-61
2023/09/01 10:48:05;;;;;;;18.30;1.03;;;20.70;99.90;;;;;;4979712;28;20500;-62
2023/09/01 10:50:34;;;;;;;14.03;0.80;;;20.80;99.90;;;;;;4980057;28;20473;-62
2023/09/01 10:53:31;;;;;;;34.33;18.23;;;20.80;99.90;;;;;;4978432;28;20470;-62
2023/09/01 10:56:05;;;;;;;2.07;0.60;;;20.80;99.90;;;;;;4979038;28;20518;-62
2023/09/01 10:58:38;;;;;;;2.63;1.00;;;21.00;99.90;;;;;;4979065;28;21021;-62
2023/09/01 11:01:37;;;;;;;2.43;0.73;;;21.10;99.90;;;;;;4978411;28;20498;-62
2023/09/01 11:04:21;;;;;;;2.57;1.17;;;21.10;99.90;;;;;;4979361;28;21033;-62
2023/09/01 11:07:00;;;;;;;1.40;0.80;;;21.00;99.90;;;;;;4977774;28;20455;-62
2023/09/01 11:09:34;;;;;;;13.93;4.87;;;21.10;99.90;;;;;;4979246;28;20467;-62
2023/09/01 11:12:00;;;;;;;5.23;1.60;;;21.20;99.90;;;;;;4978129;28;20480;-62
2023/09/01 11:14:26;;;;;;;29.67;0.90;;;21.20;99.90;;;;;;4978926;28;20581;-62
2023/09/01 11:16:52;;;;;;;12.70;0.97;;;21.50;99.90;;;;;;4979878;28;20831;-62
2023/09/01 11:19:17;;;;;;;7.70;0.90;;;21.50;99.90;;;;;;4982513;28;20192;-62
2023/09/01 11:21:43;;;;;;;30.57;1.03;;;21.60;99.90;;;;;;4983028;28;20602;-62
2023/09/01 11:24:09;;;;;;;30.57;1.57;;;21.70;99.90;;;;;;4983519;28;20237;-62
2023/09/01 11:26:38;;;;;;;50.87;1.40;;;21.90;99.90;;;;;;4981970;28;20629;-62
2023/09/01 11:29:14;;;;;;;42.43;1.23;;;21.90;99.90;;;;;;4982417;28;20204;-62
2023/09/01 11:31:41;;;;;;;41.13;1.53;;;22.00;99.90;;;;;;4982286;28;20433;-61
2023/09/01 11:34:06;;;;;;;44.70;1.30;;;21.80;99.90;;;;;;4983431;28;20546;-62
2023/09/01 11:36:33;;;;;;;45.33;1.27;;;21.80;99.90;;;;;;4982977;28;20489;-62
2023/09/01 11:38:59;;;;;;;51.90;1.60;;;21.80;99.90;;;;;;4982484;28;20740;-61
2023/09/01 11:41:28;;;;;;;42.00;1.60;;;22.00;99.90;;;;;;4983100;28;20506;-62
2023/09/01 11:43:54;;;;;;;43.80;1.60;;;22.20;99.90;;;;;;4982727;28;21471;-62
2023/09/01 11:46:46;;;;;;;44.03;1.27;;;22.70;99.90;;;;;;4981724;28;20514;-61
2023/09/01 11:49:16;;;;;;;31.00;1.30;;;22.70;99.90;;;;;;4979042;28;20202;-62
2023/09/01 11:51:42;;;;;;;35.73;1.13;;;22.70;99.90;;;;;;4983057;28;20782;-61
2023/09/01 11:54:09;;;;;;;50.50;20.70;;;22.60;99.90;;;;;;4981786;28;20500;-62
2023/09/01 11:56:35;;;;;;;3.70;1.90;;;22.40;99.90;;;;;;4982464;28;20187;-62
2023/09/01 11:59:00;;;;;;;4.80;0.77;;;22.40;99.90;;;;;;4982488;28;20430;-62
2023/09/01 12:01:38;;;;;;;2.20;0.60;;;22.20;99.90;;;;;;4980021;28;20196;-62
2023/09/01 12:04:08;;;;;;;3.40;1.10;;;22.20;99.90;;;;;;4982557;28;20280;-62
2023/09/01 12:06:39;;;;;;;3.47;0.70;;;22.20;99.90;;;;;;4982299;28;20430;-61
2023/09/01 12:09:11;;;;;;;6.60;1.70;;;22.10;99.90;;;;;;4981892;28;21219;-62
2023/09/01 12:11:52;;;;;;;5.03;1.07;;;22.20;99.90;;;;;;4979615;28;20529;-62
2023/09/01 12:14:25;;;;;;;4.47;0.80;;;22.50;99.90;;;;;;4981348;28;20430;-61
2023/09/01 12:16:53;;;;;;;3.87;0.80;;;22.60;99.90;;;;;;4980837;28;20442;-61
2023/09/01 12:19:24;;;;;;;10.30;1.80;;;22.70;99.90;;;;;;4980750;28;20464;-61
2023/09/01 12:21:54;;;;;;;2.70;0.83;;;22.80;99.90;;;;;;4982180;28;20553;-61
2023/09/01 12:24:20;;;;;;;3.33;1.17;;;22.90;99.90;;;;;;4980527;28;20427;-62
2023/09/01 12:26:49;;;;;;;3.70;0.80;;;23.30;99.90;;;;;;4981226;28;20945;-62
2023/09/01 12:29:14;;;;;;;2.40;0.80;;;23.50;99.90;;;;;;4980308;28;20195;-61
2023/09/01 12:31:41;;;;;;;2.20;1.00;;;23.30;99.30;;;;;;4980605;28;20438;-62
2023/09/01 12:34:07;;;;;;;6.40;1.20;;;23.20;99.80;;;;;;4981713;28;20194;-61
2023/09/01 12:36:32;;;;;;;4.63;1.00;;;23.20;99.20;;;;;;4980119;28;20438;-62
2023/09/01 12:38:58;;;;;;;2.33;1.23;;;23.00;99.90;;;;;;4982013;28;20187;-62
2023/09/01 12:41:23;;;;;;;2.03;0.77;;;23.10;99.90;;;;;;4981322;28;20229;-62
2023/09/01 12:43:49;;;;;;;5.23;0.90;;;23.10;99.90;;;;;;4981302;28;21500;-62
2023/09/01 12:46:15;;;;;;;4.13;0.70;;;23.00;99.90;;;;;;4979886;28;20197;-61
2023/09/01 12:48:41;;;;;;;2.17;1.00;;;22.90;99.90;;;;;;4980553;28;20215;-61